createdAt,value
2023-10-28T00:00:59.094Z,1.73
2023-10-28T00:03:26.668Z,1.70
2023-10-28T00:05:53.731Z,1.87
2023-10-28T00:08:20.949Z,1.40
2023-10-28T00:10:49.508Z,3.00
2023-10-28T00:13:17.083Z,2.40
2023-10-28T00:15:44.564Z,1.70
2023-10-28T00:18:11.910Z,1.80
2023-10-28T00:20:38.929Z,1.60
2023-10-28T00:23:06.424Z,1.70
2023-10-28T00:25:33.345Z,2.00
2023-10-28T00:28:01.060Z,1.40
2023-10-28T00:30:28.595Z,1.37
2023-10-28T00:33:02.880Z,1.77
2023-10-28T00:35:29.912Z,1.37
2023-10-28T00:37:57.795Z,1.33
2023-10-28T00:40:29.802Z,1.97
2023-10-28T00:42:57.497Z,1.67
2023-10-28T00:45:24.310Z,1.63
2023-10-28T00:47:55.030Z,1.77
2023-10-28T00:50:24.556Z,1.40
2023-10-28T00:52:56.819Z,1.70
2023-10-28T00:55:24.935Z,1.13
2023-10-28T00:57:52.427Z,1.53
2023-10-28T01:00:19.442Z,1.37
2023-10-28T01:02:46.651Z,1.60
2023-10-28T01:05:15.461Z,1.40
2023-10-28T01:07:44.801Z,1.60
2023-10-28T01:10:11.953Z,1.40
2023-10-28T01:12:41.649Z,1.20
2023-10-28T01:15:08.775Z,1.50
2023-10-28T01:17:36.622Z,1.30
2023-10-28T01:20:04.416Z,1.30
2023-10-28T01:22:31.454Z,1.20
2023-10-28T01:24:58.564Z,1.20
2023-10-28T01:27:25.424Z,1.37
2023-10-28T01:29:52.707Z,1.20
2023-10-28T01:32:19.978Z,1.20
2023-10-28T01:34:54.476Z,1.07
2023-10-28T01:37:22.416Z,1.00
2023-10-28T01:39:54.311Z,1.23
2023-10-28T01:42:23.375Z,1.13
2023-10-28T01:44:50.639Z,1.30
2023-10-28T01:47:17.788Z,1.00
2023-10-28T01:49:45.084Z,0.90
2023-10-28T01:52:13.776Z,1.23
2023-10-28T01:54:41.139Z,0.90
2023-10-28T01:57:10.986Z,1.10
2023-10-28T01:59:39.764Z,0.90
2023-10-28T02:02:08.685Z,0.90
2023-10-28T02:04:36.241Z,0.90
2023-10-28T02:07:05.530Z,0.80
2023-10-28T02:09:34.387Z,0.90
2023-10-28T02:12:03.264Z,0.70
2023-10-28T02:14:30.675Z,0.70
2023-10-28T02:16:58.036Z,0.60
2023-10-28T02:19:24.871Z,0.60
2023-10-28T02:22:02.802Z,0.60
2023-10-28T02:24:38.872Z,0.70
2023-10-28T02:27:06.209Z,0.70
2023-10-28T02:29:33.448Z,0.50
2023-10-28T02:32:00.277Z,1.00
2023-10-28T02:34:27.079Z,0.60
2023-10-28T02:36:53.993Z,0.60
2023-10-28T02:39:22.139Z,0.60
2023-10-28T02:41:50.207Z,0.60
2023-10-28T02:44:17.314Z,0.60
2023-10-28T02:46:44.344Z,0.60
2023-10-28T02:49:11.406Z,0.50
2023-10-28T02:51:39.460Z,0.60
2023-10-28T02:54:06.907Z,0.70
2023-10-28T02:56:33.836Z,0.50
2023-10-28T02:59:00.719Z,0.60
2023-10-28T03:01:27.564Z,0.93
2023-10-28T03:03:54.446Z,0.80
2023-10-28T03:06:21.332Z,0.60
2023-10-28T03:08:48.152Z,0.60
2023-10-28T03:11:15.076Z,0.77
2023-10-28T03:13:42.189Z,0.67
2023-10-28T03:16:09.966Z,0.60
2023-10-28T03:18:36.913Z,0.80
2023-10-28T03:21:03.903Z,0.57
2023-10-28T03:23:30.742Z,0.70
2023-10-28T03:25:58.029Z,0.67
2023-10-28T03:28:25.520Z,0.80
2023-10-28T03:30:52.475Z,0.60
2023-10-28T03:33:19.293Z,0.50
2023-10-28T03:35:46.125Z,0.90
2023-10-28T03:38:13.029Z,0.70
2023-10-28T03:40:40.613Z,0.60
2023-10-28T03:43:07.778Z,0.67
2023-10-28T03:45:39.195Z,0.70
2023-10-28T03:48:06.316Z,0.90
2023-10-28T03:50:33.190Z,0.50
2023-10-28T03:53:00.138Z,0.67
2023-10-28T03:55:27.298Z,0.80
2023-10-28T03:57:55.387Z,0.77
2023-10-28T04:00:22.957Z,0.87
2023-10-28T04:02:51.225Z,0.73
2023-10-28T04:05:19.395Z,0.90
2023-10-28T04:07:46.724Z,0.90
2023-10-28T04:10:13.867Z,0.80
2023-10-28T04:12:40.996Z,0.83
2023-10-28T04:15:08.462Z,0.77
2023-10-28T04:17:35.658Z,1.00
2023-10-28T04:20:02.557Z,0.90
2023-10-28T04:22:30.432Z,0.87
2023-10-28T04:24:57.396Z,1.10
2023-10-28T04:27:24.311Z,8.83
2023-10-28T04:29:52.294Z,5.83
2023-10-28T04:32:23.759Z,1.63
2023-10-28T04:34:57.823Z,5.10
2023-10-28T04:37:30.419Z,1.50
2023-10-28T04:39:57.243Z,2.83
2023-10-28T04:42:24.021Z,3.10
2023-10-28T04:44:50.966Z,2.40
2023-10-28T04:47:17.804Z,1.00
2023-10-28T04:49:44.730Z,1.60
2023-10-28T04:52:11.928Z,5.93
2023-10-28T04:54:39.749Z,10.53
2023-10-28T04:57:06.667Z,3.23
2023-10-28T04:59:33.545Z,2.23
2023-10-28T05:02:01.379Z,3.40
2023-10-28T05:04:28.896Z,6.23
2023-10-28T05:06:56.051Z,4.57
2023-10-28T05:09:22.942Z,4.30
2023-10-28T05:11:57.281Z,2.43
2023-10-28T05:14:24.644Z,1.20
2023-10-28T05:16:55.499Z,1.10
2023-10-28T05:19:23.987Z,1.03
2023-10-28T05:21:51.314Z,1.40
2023-10-28T05:24:18.430Z,1.37
2023-10-28T05:26:45.472Z,1.80
2023-10-28T05:29:12.456Z,1.43
2023-10-28T05:31:39.427Z,1.90
2023-10-28T05:34:06.330Z,1.30
2023-10-28T05:36:33.072Z,1.50
2023-10-28T05:39:00.523Z,1.40
2023-10-28T05:41:27.376Z,1.23
2023-10-28T05:43:54.194Z,1.77
2023-10-28T05:46:24.065Z,1.30
2023-10-28T05:48:52.217Z,1.10
2023-10-28T05:51:19.307Z,0.93
2023-10-28T05:53:46.143Z,1.23
2023-10-28T05:56:13.257Z,0.90
2023-10-28T05:58:40.217Z,1.10
2023-10-28T06:01:07.157Z,1.23
2023-10-28T06:03:34.221Z,1.13
2023-10-28T06:06:01.959Z,1.07
2023-10-28T06:08:28.904Z,1.80
2023-10-28T06:10:57.992Z,1.07
2023-10-28T06:13:25.145Z,1.10
2023-10-28T06:15:51.975Z,1.40
2023-10-28T06:18:20.514Z,1.00
2023-10-28T06:20:48.499Z,1.10
2023-10-28T06:23:16.451Z,1.30
2023-10-28T06:25:43.790Z,1.30
2023-10-28T06:28:12.090Z,1.60
2023-10-28T06:30:54.028Z,1.40
2023-10-28T06:33:20.985Z,1.17
2023-10-28T06:35:47.828Z,1.17
2023-10-28T06:38:14.703Z,1.37
2023-10-28T06:40:42.969Z,1.50
2023-10-28T06:43:09.810Z,1.20
2023-10-28T06:45:37.052Z,1.17
2023-10-28T06:48:04.912Z,1.13
2023-10-28T06:50:32.100Z,1.47
2023-10-28T06:53:00.844Z,1.67
2023-10-28T06:55:30.670Z,1.37
2023-10-28T06:57:58.434Z,1.30
2023-10-28T07:00:29.085Z,1.23
2023-10-28T07:02:57.511Z,0.93
2023-10-28T07:05:28.261Z,1.17
2023-10-28T07:07:58.034Z,1.10
2023-10-28T07:10:25.114Z,1.50
2023-10-28T07:12:52.613Z,1.70
2023-10-28T07:15:19.659Z,1.20
2023-10-28T07:17:46.931Z,1.30
2023-10-28T07:20:15.183Z,1.40
2023-10-28T07:22:42.849Z,1.43
2023-10-28T07:25:11.171Z,1.43
2023-10-28T07:27:39.383Z,1.10
2023-10-28T07:30:07.207Z,1.47
2023-10-28T07:32:34.242Z,1.20
2023-10-28T07:35:01.445Z,1.30
2023-10-28T07:37:28.451Z,1.37
2023-10-28T07:39:55.448Z,1.30
2023-10-28T07:42:24.394Z,1.57
2023-10-28T07:44:54.665Z,1.57
2023-10-28T07:47:22.426Z,1.30
2023-10-28T07:49:49.493Z,1.00
2023-10-28T07:52:16.987Z,1.20
2023-10-28T07:54:44.166Z,1.80
2023-10-28T07:57:10.978Z,1.27
2023-10-28T07:59:37.806Z,1.33
2023-10-28T08:02:06.171Z,1.50
2023-10-28T08:04:33.239Z,1.47
2023-10-28T08:07:00.152Z,1.60
2023-10-28T08:09:29.324Z,1.40
2023-10-28T08:11:56.128Z,1.17
2023-10-28T08:14:22.980Z,1.20
2023-10-28T08:16:49.847Z,1.20
2023-10-28T08:19:16.689Z,1.10
2023-10-28T08:21:43.493Z,1.00
2023-10-28T08:24:13.480Z,1.20
2023-10-28T08:26:41.318Z,1.57
2023-10-28T08:29:08.382Z,1.07
2023-10-28T08:31:37.005Z,1.20
2023-10-28T08:34:06.009Z,1.30
2023-10-28T08:36:35.599Z,1.40
2023-10-28T08:39:04.175Z,1.50
2023-10-28T08:41:32.413Z,1.20
2023-10-28T08:44:01.310Z,1.07
2023-10-28T08:46:29.866Z,1.17
2023-10-28T08:48:59.271Z,1.07
2023-10-28T08:51:27.245Z,1.10
2023-10-28T08:53:59.956Z,1.20
2023-10-28T08:56:28.591Z,1.23
2023-10-28T08:58:56.875Z,1.13
2023-10-28T09:01:28.415Z,1.17
2023-10-28T09:04:01.896Z,1.20
2023-10-28T09:06:29.811Z,1.30
2023-10-28T09:08:56.900Z,1.33
2023-10-28T09:11:24.398Z,1.83
2023-10-28T09:13:51.334Z,1.23
2023-10-28T09:16:18.491Z,1.10
2023-10-28T09:18:46.181Z,3.13
2023-10-28T09:21:13.707Z,1.53
2023-10-28T09:23:43.110Z,1.20
2023-10-28T09:26:10.330Z,1.33
2023-10-28T09:28:44.597Z,1.57
2023-10-28T09:31:12.087Z,2.40
2023-10-28T09:33:39.666Z,3.60
2023-10-28T09:36:08.384Z,3.23
2023-10-28T09:38:37.159Z,3.90
2023-10-28T09:41:08.456Z,6.17
2023-10-28T09:43:38.959Z,1.80
2023-10-28T09:46:07.748Z,1.20
2023-10-28T09:48:40.885Z,4.73
2023-10-28T09:51:08.159Z,3.13
2023-10-28T09:53:39.188Z,1.20
2023-10-28T09:56:07.404Z,1.40
2023-10-28T09:58:59.988Z,1.00
2023-10-28T10:01:49.934Z,1.33
2023-10-28T10:04:37.769Z,1.30
2023-10-28T10:07:05.094Z,2.10
2023-10-28T10:09:41.905Z,1.57
2023-10-28T10:12:09.314Z,1.60
2023-10-28T10:14:39.352Z,1.30
2023-10-28T10:17:15.511Z,1.53
2023-10-28T10:19:42.434Z,1.00
2023-10-28T10:22:09.834Z,1.40
2023-10-28T10:24:36.765Z,1.40
2023-10-28T10:27:04.641Z,1.20
2023-10-28T10:29:44.002Z,1.50
2023-10-28T10:32:20.706Z,1.27
2023-10-28T10:34:47.580Z,1.23
2023-10-28T10:37:27.117Z,1.27
2023-10-28T10:39:58.927Z,1.33
2023-10-28T10:42:26.791Z,1.63
2023-10-28T10:44:53.845Z,1.50
2023-10-28T10:47:22.724Z,1.17
2023-10-28T10:49:51.123Z,1.50
2023-10-28T10:52:20.346Z,1.00
2023-10-28T10:54:47.395Z,1.30
2023-10-28T10:57:14.252Z,1.37
2023-10-28T10:59:41.319Z,1.27
2023-10-28T11:02:08.729Z,1.03
2023-10-28T11:04:37.551Z,1.37
2023-10-28T11:07:06.041Z,1.40
2023-10-28T11:09:34.223Z,1.53
2023-10-28T11:12:01.117Z,2.13
2023-10-28T11:14:28.132Z,1.60
2023-10-28T11:16:55.344Z,1.13
2023-10-28T11:19:22.545Z,1.27
2023-10-28T11:21:49.546Z,1.10
2023-10-28T11:24:17.261Z,1.10
2023-10-28T11:26:50.394Z,1.20
2023-10-28T11:29:18.104Z,1.47
2023-10-28T11:31:46.320Z,1.70
2023-10-28T11:34:15.137Z,1.50
2023-10-28T11:36:42.318Z,1.73
2023-10-28T11:39:10.676Z,3.23
2023-10-28T11:41:38.021Z,2.60
2023-10-28T11:44:05.523Z,1.77
2023-10-28T11:46:32.541Z,2.17
2023-10-28T11:48:59.767Z,2.17
2023-10-28T11:51:29.299Z,1.60
2023-10-28T11:53:56.245Z,1.53
2023-10-28T11:56:23.185Z,1.20
2023-10-28T11:58:52.123Z,1.63
2023-10-28T12:01:20.206Z,1.23
2023-10-28T12:03:47.570Z,1.53
2023-10-28T12:06:28.990Z,1.30
2023-10-28T12:09:00.298Z,1.37
2023-10-28T12:11:28.610Z,1.10
2023-10-28T12:13:58.802Z,1.73
2023-10-28T12:16:26.019Z,1.10
2023-10-28T12:18:53.001Z,1.50
2023-10-28T12:21:20.362Z,1.53
2023-10-28T12:23:48.957Z,2.10
2023-10-28T12:26:15.937Z,1.50
2023-10-28T12:28:43.614Z,1.30
2023-10-28T12:31:10.461Z,1.90
2023-10-28T12:33:39.062Z,1.57
2023-10-28T12:36:08.326Z,1.80
2023-10-28T12:38:35.894Z,1.90
2023-10-28T12:41:03.538Z,1.77
2023-10-28T12:43:30.639Z,1.30
2023-10-28T12:45:57.580Z,2.17
2023-10-28T12:48:24.783Z,2.17
2023-10-28T12:50:51.694Z,1.30
2023-10-28T12:53:18.655Z,1.87
2023-10-28T12:55:45.842Z,1.10
2023-10-28T12:58:14.147Z,2.43
2023-10-28T13:00:42.570Z,1.53
2023-10-28T13:03:09.546Z,1.63
2023-10-28T13:05:36.846Z,1.50
2023-10-28T13:08:04.211Z,2.60
2023-10-28T13:10:31.135Z,1.90
2023-10-28T13:12:59.484Z,1.80
2023-10-28T13:15:26.801Z,1.40
2023-10-28T13:17:53.714Z,2.03
2023-10-28T13:20:20.662Z,1.47
2023-10-28T13:22:48.968Z,1.57
2023-10-28T13:25:17.645Z,1.77
2023-10-28T13:27:44.510Z,2.17
2023-10-28T13:30:12.082Z,3.50
2023-10-28T13:32:52.202Z,2.60
2023-10-28T13:35:23.288Z,4.60
2023-10-28T13:37:51.365Z,19.27
2023-10-28T13:40:18.678Z,9.43
2023-10-28T13:42:45.862Z,22.77
2023-10-28T13:45:12.741Z,13.20
2023-10-28T13:47:43.229Z,14.10
2023-10-28T13:50:10.467Z,8.43
2023-10-28T13:52:37.463Z,2.77
2023-10-28T13:55:04.786Z,3.00
2023-10-28T13:57:33.479Z,2.03
2023-10-28T14:00:00.449Z,1.73
2023-10-28T14:02:27.415Z,2.53
2023-10-28T14:04:54.422Z,2.30
2023-10-28T14:07:21.973Z,2.07
2023-10-28T14:09:49.168Z,1.60
2023-10-28T14:12:16.746Z,2.23
2023-10-28T14:14:44.013Z,4.90
2023-10-28T14:17:10.957Z,3.60
2023-10-28T14:19:37.842Z,4.80
2023-10-28T14:22:04.891Z,3.60
2023-10-28T14:24:31.864Z,3.73
2023-10-28T14:26:59.392Z,2.90
2023-10-28T14:29:26.523Z,2.90
2023-10-28T14:31:55.563Z,2.07
2023-10-28T14:34:22.915Z,1.60
2023-10-28T14:36:49.749Z,1.53
2023-10-28T14:39:17.705Z,1.70
2023-10-28T14:41:45.238Z,1.87
2023-10-28T14:44:12.238Z,2.33
2023-10-28T14:46:39.487Z,1.60
2023-10-28T14:49:06.543Z,1.30
2023-10-28T14:51:33.398Z,1.23
2023-10-28T14:54:03.680Z,1.53
2023-10-28T14:56:31.168Z,1.83
2023-10-28T14:58:58.081Z,1.10
2023-10-28T15:01:25.254Z,1.53
2023-10-28T15:03:52.268Z,1.40
2023-10-28T15:06:19.723Z,1.60
2023-10-28T15:08:51.129Z,1.37
2023-10-28T15:11:18.482Z,1.73
2023-10-28T15:13:45.632Z,1.63
2023-10-28T15:16:13.622Z,1.43
2023-10-28T15:18:44.189Z,1.80
2023-10-28T15:21:12.608Z,1.33
2023-10-28T15:23:40.089Z,1.60
2023-10-28T15:26:11.890Z,1.43
2023-10-28T15:28:39.225Z,1.40
2023-10-28T15:31:06.919Z,1.50
2023-10-28T15:33:34.110Z,1.37
2023-10-28T15:36:01.047Z,1.00
2023-10-28T15:38:31.930Z,1.23
2023-10-28T15:40:59.900Z,1.67
2023-10-28T15:43:27.706Z,1.23
2023-10-28T15:45:54.772Z,1.63
2023-10-28T15:48:21.648Z,1.50
2023-10-28T15:50:48.817Z,1.27
2023-10-28T15:53:16.226Z,1.40
2023-10-28T15:55:43.121Z,1.40
2023-10-28T15:58:09.931Z,1.60
2023-10-28T16:00:37.339Z,1.53
2023-10-28T16:03:04.775Z,1.67
2023-10-28T16:05:31.701Z,1.70
2023-10-28T16:07:59.130Z,2.20
2023-10-28T16:10:27.203Z,2.27
2023-10-28T16:12:54.159Z,1.33
2023-10-28T16:15:21.704Z,1.80
2023-10-28T16:17:49.410Z,1.63
2023-10-28T16:20:16.880Z,1.50
2023-10-28T16:22:44.270Z,1.80
2023-10-28T16:25:13.860Z,1.93
2023-10-28T16:27:41.171Z,1.40
2023-10-28T16:30:10.661Z,1.20
2023-10-28T16:32:37.639Z,2.30
2023-10-28T16:35:05.845Z,2.10
2023-10-28T16:37:32.681Z,1.83
2023-10-28T16:39:59.754Z,1.60
2023-10-28T16:42:26.761Z,1.87
2023-10-28T16:44:53.656Z,1.73
2023-10-28T16:47:20.776Z,2.00
2023-10-28T16:49:47.838Z,1.90
2023-10-28T16:52:14.680Z,1.80
2023-10-28T16:54:41.829Z,2.37
2023-10-28T16:57:09.601Z,2.30
2023-10-28T16:59:39.459Z,2.57
2023-10-28T17:02:06.897Z,2.23
2023-10-28T17:04:33.837Z,2.27
2023-10-28T17:07:02.636Z,2.30
2023-10-28T17:09:30.729Z,1.80
2023-10-28T17:11:58.079Z,1.83
2023-10-28T17:14:25.149Z,1.50
2023-10-28T17:16:52.100Z,1.70
2023-10-28T17:19:18.967Z,1.70
2023-10-28T17:21:45.818Z,4.00
2023-10-28T17:24:12.724Z,1.50
2023-10-28T17:26:39.951Z,1.60
2023-10-28T17:29:07.204Z,1.80
2023-10-28T17:31:34.462Z,1.90
2023-10-28T17:34:01.326Z,1.37
2023-10-28T17:36:29.218Z,1.67
2023-10-28T17:38:56.746Z,1.73
2023-10-28T17:41:24.170Z,1.80
2023-10-28T17:43:51.736Z,1.73
2023-10-28T17:46:19.411Z,2.13
2023-10-28T17:48:46.299Z,1.63
2023-10-28T17:51:16.103Z,1.87
2023-10-28T17:53:44.292Z,1.50
2023-10-28T17:56:11.377Z,1.73
2023-10-28T17:58:40.816Z,1.73
2023-10-28T18:01:07.757Z,2.27
2023-10-28T18:03:35.137Z,2.30
2023-10-28T18:06:06.329Z,1.50
2023-10-28T18:08:36.487Z,2.03
2023-10-28T18:11:05.526Z,2.13
2023-10-28T18:13:32.560Z,1.70
2023-10-28T18:15:59.538Z,1.33
2023-10-28T18:18:27.727Z,1.57
2023-10-28T18:20:54.689Z,1.83
2023-10-28T18:23:28.808Z,1.83
2023-10-28T18:25:58.328Z,1.60
2023-10-28T18:28:25.135Z,1.87
2023-10-28T18:30:51.957Z,1.80
2023-10-28T18:33:18.919Z,2.37
2023-10-28T18:35:45.914Z,1.60
2023-10-28T18:38:12.917Z,2.40
2023-10-28T18:40:43.142Z,1.63
2023-10-28T18:43:10.492Z,2.10
2023-10-28T18:45:38.487Z,2.07
2023-10-28T18:48:06.140Z,1.63
2023-10-28T18:50:33.678Z,3.87
2023-10-28T18:53:00.496Z,3.87
2023-10-28T18:55:27.378Z,2.80
2023-10-28T18:57:54.348Z,2.43
2023-10-28T19:00:22.414Z,2.60
2023-10-28T19:02:50.088Z,1.70
2023-10-28T19:05:17.130Z,2.07
2023-10-28T19:07:47.474Z,2.57
2023-10-28T19:10:14.355Z,1.90
2023-10-28T19:12:41.291Z,2.23
2023-10-28T19:15:10.062Z,2.50
2023-10-28T19:17:37.123Z,1.87
2023-10-28T19:20:04.609Z,2.40
2023-10-28T19:22:31.480Z,2.07
2023-10-28T19:24:58.298Z,2.20
2023-10-28T19:27:25.313Z,1.87
2023-10-28T19:29:53.438Z,2.33
2023-10-28T19:32:20.746Z,1.93
2023-10-28T19:34:47.630Z,2.30
2023-10-28T19:37:15.003Z,3.10
2023-10-28T19:39:41.797Z,4.80
2023-10-28T19:42:08.709Z,5.33
2023-10-28T19:44:35.539Z,3.70
2023-10-28T19:47:02.431Z,2.90
2023-10-28T19:49:29.290Z,3.73
2023-10-28T19:51:58.386Z,4.00
2023-10-28T19:54:25.239Z,3.20
2023-10-28T19:56:52.100Z,2.43
2023-10-28T19:59:19.389Z,2.47
2023-10-28T20:01:46.224Z,2.17
2023-10-28T20:04:13.140Z,2.10
2023-10-28T20:06:39.968Z,2.03
2023-10-28T20:09:08.071Z,2.03
2023-10-28T20:11:34.906Z,2.43
2023-10-28T20:14:01.747Z,2.17
2023-10-28T20:16:28.670Z,2.60
2023-10-28T20:18:55.533Z,3.20
2023-10-28T20:21:22.365Z,9.83
2023-10-28T20:23:49.574Z,6.27
2023-10-28T20:26:16.590Z,3.50
2023-10-28T20:28:44.013Z,2.83
2023-10-28T20:31:11.964Z,2.43
2023-10-28T20:33:39.277Z,3.20
2023-10-28T20:36:06.758Z,2.50
2023-10-28T20:38:34.335Z,2.57
2023-10-28T20:41:02.507Z,2.03
2023-10-28T20:43:29.781Z,2.10
2023-10-28T20:45:56.815Z,1.80
2023-10-28T20:48:24.003Z,2.07
2023-10-28T20:50:51.425Z,2.43
2023-10-28T20:53:18.567Z,2.17
2023-10-28T20:55:45.806Z,2.00
2023-10-28T20:58:12.657Z,1.90
2023-10-28T21:00:41.034Z,1.40
2023-10-28T21:03:08.777Z,2.13
2023-10-28T21:05:37.103Z,2.07
2023-10-28T21:08:04.429Z,2.20
2023-10-28T21:10:31.711Z,2.00
2023-10-28T21:12:59.221Z,2.03
2023-10-28T21:15:26.126Z,1.83
2023-10-28T21:17:53.295Z,1.90
2023-10-28T21:20:20.496Z,1.50
2023-10-28T21:22:50.056Z,1.90
2023-10-28T21:25:17.238Z,2.10
2023-10-28T21:27:44.258Z,2.20
2023-10-28T21:30:11.780Z,2.10
2023-10-28T21:32:38.897Z,2.20
2023-10-28T21:35:07.114Z,1.63
2023-10-28T21:37:34.616Z,1.80
2023-10-28T21:40:01.445Z,2.00
2023-10-28T21:42:28.636Z,1.97
2023-10-28T21:44:55.757Z,1.57
2023-10-28T21:47:22.706Z,1.50
2023-10-28T21:49:49.653Z,2.10
2023-10-28T21:52:17.645Z,1.90
2023-10-28T21:54:44.525Z,2.47
2023-10-28T21:57:13.064Z,1.57
2023-10-28T21:59:39.916Z,2.00
2023-10-28T22:02:11.989Z,1.63
2023-10-28T22:04:45.202Z,1.53
2023-10-28T22:07:13.384Z,1.30
2023-10-28T22:09:40.511Z,1.80
2023-10-28T22:12:07.568Z,1.70
2023-10-28T22:14:34.437Z,2.10
2023-10-28T22:17:01.707Z,2.00
2023-10-28T22:19:28.509Z,2.37
2023-10-28T22:21:55.307Z,1.60
2023-10-28T22:24:22.707Z,1.93
2023-10-28T22:26:49.716Z,1.70
2023-10-28T22:29:16.671Z,1.43
2023-10-28T22:31:43.482Z,1.63
2023-10-28T22:34:10.281Z,1.60
2023-10-28T22:36:37.063Z,1.90
2023-10-28T22:39:04.150Z,1.43
2023-10-28T22:41:30.953Z,1.70
2023-10-28T22:44:00.163Z,1.90
2023-10-28T22:46:30.583Z,2.17
2023-10-28T22:48:57.947Z,2.50
2023-10-28T22:51:25.129Z,2.13
2023-10-28T22:53:52.100Z,1.80
2023-10-28T22:56:19.182Z,1.80
2023-10-28T22:58:46.049Z,1.73
2023-10-28T23:01:15.718Z,1.90
2023-10-28T23:03:43.584Z,2.03
2023-10-28T23:06:10.645Z,1.87
2023-10-28T23:08:37.635Z,2.00
2023-10-28T23:11:05.526Z,1.80
2023-10-28T23:13:32.496Z,1.73
2023-10-28T23:15:59.395Z,1.67
2023-10-28T23:18:26.257Z,1.53
2023-10-28T23:20:56.941Z,2.33
2023-10-28T23:23:24.913Z,1.87
2023-10-28T23:25:52.073Z,1.80
2023-10-28T23:28:19.341Z,1.87
2023-10-28T23:30:46.360Z,2.40
2023-10-28T23:33:13.275Z,1.80
2023-10-28T23:35:40.217Z,1.70
2023-10-28T23:38:07.207Z,1.83
2023-10-28T23:40:34.310Z,1.60
2023-10-28T23:43:01.957Z,2.10
2023-10-28T23:45:29.797Z,1.90
2023-10-28T23:47:56.719Z,2.43
2023-10-28T23:50:23.654Z,3.00
2023-10-28T23:52:50.517Z,2.27
2023-10-28T23:55:17.329Z,2.57
2023-10-28T23:57:44.226Z,2.23
